Vashti, North Carolina
Current Conditions -  °F | °C
As of 10:55 PM on Wednesday 22 Oct 2014 (Local Time) from KSVH Reporting Station
Clear Clear  
Wind Chill: 46°   Ceiling: Unl
Heat Index: 48°   Visibility: 10mi
Dew Point: 38°   Wind: 5mph
Humidity: 70%   Direction: 300°WNW
Pressure: 30.09"   Gusts: NA
Location:  35.9603°N, 81.0498°W
Report Text: KSVH 230255Z AUTO 30004KT 10SM CLR 09/04 A3009 RMK AO2 T00870035
Loading
Personal Weather Stations






























Interactive Weather Map
Tropical Storm Tracking
New forecast layout! Learn more

10-Day Weather Forecast

Advertisements
Track Severe Weather on mobile